Latest Coastal Weather Observations for Neptune Island

IDT60701

Issued at 4:42 am EDT Monday 20 November 2017 (issued every 10 minutes, with the page automatically refreshed every 10 minutes)

About coastal observations | Map of coastal stations | Coastal observations for TAS | Marine services | Other Formats
Station Details ID: 018115 Name: NEPTUNE ISLAND Lat: -35.34 Lon: 136.12 Height: 32.0 m
Data from the previous 72 hours. | See also: Recent months at Neptune Island
Date/Time
EDT
Temp
°C
Wind Pressure Rain since
9am
mm
Weather Cloud Vis
km
Sea
Height
m
Swell
Dir  Spd
kts
Gust
kts
hPa Trend Height
m
Period
s
Dir
20/04:30am 18.3 E 20 23 1011.6 - 0.0 - - - - - - -
20/04:00am 18.3 E 18 21 1011.8 - 0.0 - - - - - - -
20/03:30am 18.3 E 18 20 1011.8 - 0.0 - - - - - - -
20/03:00am 18.3 E 17 19 1011.9 - 0.0 - - - - - - -
20/02:30am 18.2 E 17 19 1011.9 - 0.0 - - - - - - -
20/02:00am 18.2 E 18 20 1011.9 - 0.0 - - - - - - -
20/01:30am 18.4 E 18 21 1011.9 - 0.0 - - - - - - -
20/01:00am 18.4 ESE 17 19 1012.2 - 0.0 - - - - - - -
20/12:30am 18.3 ESE 15 18 1012.3 - 0.0 - - - - - - -
20/12:00am 18.1 ESE 13 15 1012.3 - 0.0 - - - - - - -
 
Date/Time
EDT
Temp
°C
Wind Pressure Rain since
9am
mm
Weather Cloud Vis
km
Sea
Height
m
Swell
Dir  Spd
kts
Gust
kts
hPa Trend Height
m
Period
s
Dir
19/11:30pm 18.3 ESE 12 15 1012.4 - 0.0 - - - - - - -
19/11:00pm 18.5 ESE 13 15 1012.5 - 0.0 - - - - - - -
19/10:30pm 18.6 ESE 13 14 1012.5 - 0.0 - - - - - - -
19/10:00pm 19.0 ESE 13 14 1012.5 - 0.0 - - - - - - -
19/09:30pm 18.9 SE 11 12 1012.3 - 0.0 - - - - - - -
19/09:00pm 18.1 SSE 10 11 1012.2 - 0.0 - - - - - - -
19/08:30pm 18.2 SSE 11 13 1011.8 - 0.0 - - - - - - -
19/08:00pm 18.2 SSE 12 14 1011.6 - 0.0 - - - - - - -
19/07:30pm 18.2 SSE 12 14 1011.7 - 0.0 - - - - - - -
19/07:00pm 18.8 SSE 12 14 1011.8 - 0.0 - - - - - - -
19/06:30pm 18.9 SSE 11 12 1012.2 - 0.0 - - - - - - -
19/06:00pm 19.4 SSE 11 14 1012.2 - 0.0 - - - - - - -
19/05:30pm 21.1 SSE 12 14 1012.3 - 0.0 - - - - - - -
19/05:00pm 20.8 SE 11 13 1012.7 - 0.0 - - - - - - -
19/04:30pm 21.7 ESE 12 15 1012.8 - 0.0 - - - - - - -
19/04:00pm 21.2 E 12 16 1012.7 - 0.0 - - - - - - -
19/03:30pm 22.6 E 13 15 1012.9 - 0.0 - - - - - - -
19/03:00pm 21.1 E 12 15 1013.1 - 0.0 - - - - - - -
19/02:30pm 20.3 ESE 13 18 1013.4 - 0.0 - - - - - - -
19/02:00pm 20.7 ESE 15 17 1013.8 - 0.0 - - - - - - -
19/01:30pm 20.0 E 14 17 1014.1 - 0.0 - - - - - - -
19/01:00pm 20.2 E 12 15 1014.6 - 0.0 - - - - - - -
19/12:30pm 20.5 ESE 14 16 1014.9 - 0.0 - - - - - - -
19/12:00pm 19.9 E 12 15 1015.1 - 0.0 - - - - - - -
19/11:30am 19.6 ESE 14 17 1014.9 - 0.0 - - - - - - -
19/11:00am 18.9 E 11 13 1014.9 - 0.0 - - - - - - -
19/10:30am 18.1 E 11 13 1015.0 - 0.0 - - - - - - -
19/10:00am 17.9 E 12 15 1015.0 - 0.0 - - - - - - -
19/09:30am 17.7 E 12 14 1015.0 - 0.0 - - - - - - -
19/09:00am 17.4 E 13 15 1014.4 - 0.0 - - - - - - -
19/08:30am 17.1 E 16 19 1014.1 - 0.0 - - - - - - -
19/08:00am 16.9 E 15 17 1013.9 - 0.0 - - - - - - -
19/07:30am 16.6 E 11 12 1014.2 - 0.0 - - - - - - -
19/07:00am 16.0 ESE 9 11 1014.5 - 0.0 - - - - - - -
19/06:30am 15.8 E 11 13 1013.9 - 0.0 - - - - - - -
19/06:00am 15.6 ESE 13 15 1013.3 - 0.0 - - - - - - -
19/05:30am 15.6 ESE 15 18 1012.9 - 0.0 - - - - - - -
19/05:00am 15.6 ESE 15 17 1012.9 - 0.0 - - - - - - -
19/04:30am 15.6 ESE 15 18 1013.1 - 0.0 - - - - - - -
19/04:00am 15.6 E 17 20 1013.4 - 0.0 - - - - - - -
19/03:30am 15.6 ESE 16 19 1013.5 - 0.0 - - - - - - -
19/03:00am 15.4 ESE 13 15 1014.0 - 0.0 - - - - - - -
19/02:30am 15.3 ESE 11 14 1014.0 - 0.0 - - - - - - -
19/02:00am 15.3 ESE 12 15 1014.0 - 0.0 - - - - - - -
19/01:30am 15.4 ESE 14 17 1014.0 - 0.0 - - - - - - -
19/01:00am 16.0 ESE 15 18 1013.9 - 0.0 - - - - - - -
19/12:30am 16.2 ESE 14 16 1014.4 - 0.0 - - - - - - -
19/12:00am 16.4 ESE 11 13 1014.6 - 0.0 - - - - - - -
 
Date/Time
EDT
Temp
°C
Wind Pressure Rain since
9am
mm
Weather Cloud Vis
km
Sea
Height
m
Swell
Dir  Spd
kts
Gust
kts
hPa Trend Height
m
Period
s
Dir
18/11:30pm 16.4 ESE 10 11 1014.8 - 0.0 - - - - - - -
18/11:00pm 16.6 E 12 15 1014.7 - 0.0 - - - - - - -
18/10:30pm 16.6 E 13 16 1014.4 - 0.0 - - - - - - -
18/10:00pm 16.3 ESE 11 13 1014.5 - 0.0 - - - - - - -
18/09:30pm 16.2 ESE 8 9 1014.7 - 0.0 - - - - - - -
18/09:00pm 16.3 SE 8 9 1014.7 - 0.0 - - - - - - -
18/08:30pm 16.7 SSE 8 9 1014.6 - 0.0 - - - - - - -
18/08:00pm 17.1 SSE 11 13 1014.3 - 0.0 - - - - - - -
18/07:30pm 17.5 SE 12 15 1013.8 - 0.0 - - - - - - -
18/07:00pm 17.8 SE 13 15 1014.1 - 0.0 - - - - - - -
18/06:30pm 18.2 SE 13 15 1014.1 - 0.0 - - - - - - -
18/06:00pm 18.3 SE 13 15 1014.2 - 0.0 - - - - - - -
18/05:30pm 18.6 SE 13 15 1014.3 - 0.0 - - - - - - -
18/05:00pm 18.8 SE 11 12 1014.7 - 0.0 - - - - - - -
18/04:30pm 19.1 SE 11 12 1014.9 - 0.0 - - - - - - -
18/04:00pm 19.1 ESE 10 13 1015.4 - 0.0 - - - - - - -
18/03:30pm 19.0 SE 10 11 1015.8 - 0.0 - - - - - - -
18/03:00pm 18.7 SE 8 10 1016.0 - 0.0 - - - - - - -
18/02:30pm 18.9 E 7 9 1016.2 - 0.0 - - - - - - -
18/02:00pm 18.4 E 8 11 1016.1 - 0.0 - - - - - - -
18/01:30pm 19.0 E 9 12 1016.1 - 0.0 - - - - - - -
18/01:00pm 18.6 E 11 14 1016.1 - 0.0 - - - - - - -
18/12:30pm 17.9 ENE 9 11 1016.2 - 0.0 - - - - - - -
18/12:00pm 17.7 E 9 12 1016.1 - 0.0 - - - - - - -
18/11:30am 17.3 E 9 12 1015.9 - 0.0 - - - - - - -
18/11:00am 16.5 ENE 6 8 1016.2 - 0.0 - - - - - - -
18/10:30am 16.6 ENE 5 7 1016.2 - 0.0 - - - - - - -
18/10:00am 16.8 E 7 10 1016.1 - 0.0 - - - - - - -
18/09:30am 16.3 ENE 7 10 1015.8 - 0.0 - - - - - - -
18/09:00am 16.0 ENE 6 7 1015.8 - 0.0 - - - - - - -
18/08:30am 15.7 NE 3 4 1015.8 - 0.0 - - - - - - -
18/08:00am 15.4 NNE 3 6 1015.5 - 0.0 - - - - - - -
18/07:30am 15.2 ENE 7 9 1015.0 - 0.0 - - - - - - -
18/07:00am 15.0 E 2 4 1014.8 - 0.0 - - - - - - -
18/06:30am 15.1 ENE 5 9 1014.2 - 0.0 - - - - - - -
18/06:00am 15.1 E 6 11 1014.1 - 0.0 - - - - - - -
18/05:30am 15.0 ENE 4 5 1014.3 - 0.0 - - - - - - -
18/05:00am 15.0 E 4 5 1014.3 - 0.0 - - - - - - -
18/04:30am 15.0 E 6 8 1014.3 - 0.0 - - - - - - -
18/04:00am 15.0 SSE 5 7 1014.5 - 0.0 - - - - - - -
18/03:30am 15.0 ESE 5 8 1014.6 - 0.0 - - - - - - -
18/03:00am 15.3 SE 7 9 1014.5 - 0.0 - - - - - - -
18/02:30am 15.1 SE 11 12 1014.7 - 0.0 - - - - - - -
18/02:00am 15.2 SSE 9 12 1015.0 - 0.0 - - - - - - -
18/01:30am 15.3 SSE 7 8 1015.4 - 0.0 - - - - - - -
18/01:00am 15.3 SE 8 10 1015.7 - 0.0 - - - - - - -
18/12:30am 15.3 SE 8 10 1015.8 - 0.0 - - - - - - -
18/12:00am 15.2 SSE 9 11 1016.3 - 0.0 - - - - - - -
 
Date/Time
EDT
Temp
°C
Wind Pressure Rain since
9am
mm
Weather Cloud Vis
km
Sea
Height
m
Swell
Dir  Spd
kts
Gust
kts
hPa Trend Height
m
Period
s
Dir
17/11:30pm 15.2 SSE 8 10 1016.4 - 0.0 - - - - - - -
17/11:00pm 15.2 S 10 13 1016.4 - 0.0 - - - - - - -
17/10:30pm 15.0 S 11 14 1016.1 - 0.0 - - - - - - -
17/10:00pm 15.3 S 12 15 1015.9 - 0.0 - - - - - - -
17/09:30pm 15.2 SSE 11 16 1015.4 - 0.0 - - - - - - -
17/09:00pm 14.9 S 13 16 1015.2 - 0.0 - - - - - - -
17/08:30pm 14.8 S 14 18 1015.1 - 0.0 - - - - - - -
17/08:00pm 14.9 S 17 20 1015.1 - 0.0 - - - - - - -
17/07:30pm 14.7 SSW 17 21 1015.0 - 0.0 - - - - - - -
17/07:00pm 15.0 SSW 16 19 1015.1 - 0.0 - - - - - - -
17/06:30pm 15.2 SSW 16 19 1015.0 - 0.0 - - - - - - -
17/06:00pm 15.1 SW 18 21 1015.1 - 0.0 - - - - - - -
17/05:30pm 15.7 SW 17 21 1015.3 - 0.0 - - - - - - -
17/05:00pm 15.6 SW 17 21 1015.3 - 0.0 - - - - - - -
17/04:30pm 15.8 SW 18 22 1015.4 - 0.0 - - - - - - -
17/04:00pm 16.3 SW 19 22 1015.6 - 0.0 - - - - - - -
17/03:30pm 15.8 SW 19 22 1016.0 - 0.0 - - - - - - -
17/03:00pm 16.7 SW 18 21 1016.3 - 0.0 - - - - - - -
17/02:30pm 15.9 SW 19 22 1016.4 - 0.0 - - - - - - -
17/02:00pm 15.8 SW 19 22 1016.5 - 0.0 - - - - - - -
17/01:30pm 15.6 SW 19 22 1016.5 - 0.0 - - - - - - -
17/01:00pm 14.6 SW 19 22 1016.5 - 0.0 - - - - - - -
17/12:30pm 14.2 SW 17 21 1016.7 - 0.0 - - - - - - -
17/12:00pm 14.3 WSW 15 18 1016.7 - 0.0 - - - - - - -
17/11:30am 14.3 SW 14 17 1016.7 - 0.0 - - - - - - -
17/11:00am 14.4 SW 15 18 1016.8 - 0.0 - - - - - - -
17/10:30am 14.5 SW 15 18 1016.8 - 0.0 - - - - - - -
17/10:00am 13.8 SW 16 19 1017.1 - 0.0 - - - - - - -
17/09:30am 13.8 SW 14 17 1017.0 - 0.0 - - - - - - -
17/09:00am 13.4 SSW 16 19 1016.9 - 0.0 - - - - - - -
17/08:30am 13.6 SSW 16 19 1016.6 - 0.0 - - - - - - -
17/08:00am 13.5 SSW 16 20 1016.3 - 0.0 - - - - - - -
17/07:30am 13.7 SSW 15 19 1016.2 - 0.0 - - - - - - -
17/07:00am 13.6 SSW 17 20 1016.0 - 0.0 - - - - - - -
17/06:30am 13.7 S 19 24 1015.8 - 0.0 - - - - - - -
17/06:00am 13.5 S 19 23 1015.8 - 0.0 - - - - - - -
17/05:30am 13.4 SSW 18 22 1015.8 - 0.0 - - - - - - -

Other Formats:

Comma delimited format used in spreadsheet applications
http://www.bom.gov.au/fwo/IDT60701/IDT60701.94804.axf

JavaScript Object Notation format (JSON) in row-major order
http://www.bom.gov.au/fwo/IDT60701/IDT60701.94804.json